Flight Track Log - Related Links

Times and Time Zones

All times are in EDT time to prevent confusion due to time zone crossing. See the AWE3921 flight status page for this flight to view local times or setup timezone preferences in your user account.

Time Position Orientation Groundspeed Altitude Reporting Facility
EDT Latitude Longitude Course Direction KTS MPH feet Rate Location/Type
Tue 12:03:03 PM 43.0975 -77.6972 192° South 163 188 1,400  Level Cleveland Center
Tue 12:04:09 PM 43.0356 -77.7200 195° South 239 275 3,500 1,952 Climbing Cleveland Center
Tue 12:05:00 PM 42.8456 -77.7167 180° South  Level FlightAware
Tue 12:05:09 PM 42.9669 -77.7289 185° South 270 311 5,500  Level Cleveland Center
Tue 12:06:00 PM 42.7555 -77.7389 192° South  Level FlightAware
Tue 12:06:09 PM 42.8878 -77.7297 180° South 281 323 7,600  Level Cleveland Center
Tue 12:07:00 PM 42.6657 -77.7653 192° South  Level FlightAware
Tue 12:07:09 PM 42.8089 -77.7417 186° South 293 337 9,900  Level Cleveland Center
Tue 12:08:00 PM 42.5759 -77.7922 192° South  Level FlightAware
Tue 12:08:09 PM 42.7239 -77.7625 190° South 293 337 11,400  Level Cleveland Center
Tue 12:09:09 PM 42.6369 -77.7861 191° South 311 358 13,900 2,350 Climbing Cleveland Center
Tue 12:10:09 PM 42.5519 -77.8125 193° South 316 364 16,100 2,000 Climbing Cleveland Center
Tue 12:11:09 PM 42.4544 -77.8308 188° South 331 381 17,900 1,750 Climbing Cleveland Center
Tue 12:12:09 PM 42.3614 -77.8575 192° South 336 387 19,600 1,600 Climbing Cleveland Center
Tue 12:13:09 PM 42.2639 -77.8811 190° South 346 398 21,100 1,350 Climbing Cleveland Center
Tue 12:14:09 PM 42.1644 -77.9050 190° South 358 412 22,300 950 Climbing Cleveland Center
Tue 12:15:09 PM 42.0586 -77.9319 191° South 380 437 23,000 350 Climbing Cleveland Center
Tue 12:16:09 PM 41.9572 -77.9583 191° South 385 443 23,000  Level Cleveland Center
Tue 12:17:09 PM 41.8514 -77.9850 191° South 385 443 23,000  Level Cleveland Center
Tue 12:18:09 PM 41.7497 -78.0086 190° South 385 443 23,000  Level Cleveland Center
Tue 12:19:09 PM 41.6461 -78.0350 191° South 385 443 23,000  Level Cleveland Center
Tue 12:20:09 PM 41.5444 -78.0611 191° South 385 443 23,000  Level Cleveland Center
Tue 12:21:09 PM 41.4431 -78.0872 191° South 385 443 23,000  Level Cleveland Center
Tue 12:22:09 PM 41.3433 -78.1106 190° South 385 443 23,000  Level Cleveland Center
Tue 12:22:52 PM 41.2747 -78.1283 191° South 377 434 23,000  Level New Center
Tue 12:23:53 PM 41.1808 -78.1267 179° South 350 403 23,000  Level New Center
Tue 12:24:53 PM 41.0781 -78.0742 159° South 361 415 23,000  Level New Center
Tue 12:25:54 PM 40.9767 -78.0247 160° South 375 432 23,000 -248 Level New Center
Tue 12:26:54 PM 40.8806 -77.9622 154° Southeast 382 440 22,500 -1,017 Descending New Center
Tue 12:27:52 PM 40.7869 -77.8894 150° Southeast 389 448 21,000 -1,513 Descending New Center
Tue 12:28:53 PM 40.6953 -77.8169 149° Southeast 389 448 19,500 -1,426 Descending New Center
Tue 12:29:54 PM 40.6097 -77.7508 150° Southeast 377 434 18,100 -756 Descending New Center
Tue 12:30:52 PM 40.5278 -77.6878 150° Southeast 356 410 18,000 -51 Descending New Center
Tue 12:31:52 PM 40.4439 -77.6247 150° Southeast 349 402 18,000  Level New Center
Tue 12:32:54 PM 40.3503 -77.5528 150° Southeast 349 402 18,000  Level New Center
Tue 12:33:54 PM 40.2761 -77.4967 150° Southeast 349 402 18,000  Level New Center
Tue 12:34:52 PM 40.1844 -77.4225 148° Southeast 349 402 18,000  Level New Center
Tue 12:35:52 PM 40.1025 -77.3603 150° Southeast 344 396 18,000  Level New Center
Tue 12:36:53 PM 40.0364 -77.3108 150° Southeast 344 396 18,000  Level New Center
Tue 12:37:53 PM 39.9386 -77.2339 149° Southeast 344 396 18,000  Level New Center
Tue 12:38:53 PM 39.8564 -77.1722 150° Southeast 344 396 18,000 -966 Level New Center
Tue 12:39:51 PM 39.7700 -77.1103 151° Southeast 352 405 16,100 -1,000 Descending New Center
Tue 12:40:53 PM 39.6839 -77.0431 149° Southeast 357 411 16,000 -563 Descending New Center
Tue 12:42:31 PM 39.5333 -76.9333 151° Southeast 355 409 14,600 -1,539 Descending Potomac TRACON
Tue 12:43:25 PM 39.4667 -76.8833 150° Southeast 354 407 12,100 -1,368 Descending Potomac TRACON
Tue 12:44:25 PM 39.3833 -76.8167 148° Southeast 351 404 12,000 -300 Descending Potomac TRACON
Tue 12:45:25 PM 39.3000 -76.7500 148° Southeast 347 399 11,500 -810 Descending Potomac TRACON
Tue 12:46:31 PM 39.2000 -76.6833 153° Southeast 351 404 10,300 -783 Descending Potomac TRACON
Tue 12:47:20 PM 39.1333 -76.7000 191° South 289 333 10,000 -149 Descending Potomac TRACON
Tue 12:48:32 PM 39.0667 -76.7833 224° Southwest 282 325 10,000 -476 Level Potomac TRACON
Tue 12:49:26 PM 39.0167 -76.8500 226° Southwest 279 321 9,000 -842 Descending Potomac TRACON
Tue 12:50:26 PM 38.9500 -76.9167 218° Southwest 276 318 8,400 -1,050 Descending Potomac TRACON
Tue 12:51:26 PM 38.8833 -76.9500 201° Southwest 289 333 6,900 -1,252 Descending Potomac TRACON
Tue 12:52:21 PM 38.8167 -76.9500 180° South 275 316 6,000 -991 Descending Potomac TRACON
Tue 12:53:21 PM 38.7500 -76.9500 180° South 233 268 5,000 -500 Descending Potomac TRACON
Tue 12:54:21 PM 38.6833 -76.9333 169° South 233 268 5,000 -450 Level Potomac TRACON
Tue 12:55:21 PM 38.6167 -76.9500 191° South 233 268 4,100 -793 Descending Potomac TRACON
Tue 12:56:22 PM 38.6167 -77.0000 270° West 183 211 3,400 -574 Descending Potomac TRACON
Tue 12:57:16 PM 38.6500 -77.0333 322° Northwest 174 200 3,000 -444 Descending Potomac TRACON

Login

Don't have an account? Register now (free) for customized features, flight alerts, and more!